createdAt,value
2018-08-24T00:02:18.841Z,83.41
2018-08-24T00:05:43.550Z,86.04
2018-08-24T00:09:15.440Z,83.20
2018-08-24T00:12:40.078Z,86.91
2018-08-24T00:16:04.816Z,85.66
2018-08-24T00:19:29.528Z,86.39
2018-08-24T00:22:54.182Z,84.90
2018-08-24T00:26:18.827Z,84.95
2018-08-24T00:29:43.534Z,86.40
2018-08-24T00:33:08.194Z,87.46
2018-08-24T00:36:32.932Z,86.09
2018-08-24T00:39:57.595Z,84.77
2018-08-24T00:43:22.234Z,84.60
2018-08-24T00:46:46.873Z,82.69
2018-08-24T00:50:11.517Z,85.52
2018-08-24T00:53:38.345Z,79.85
2018-08-24T00:57:03.073Z,83.72
2018-08-24T01:00:32.871Z,88.07
2018-08-24T01:03:57.530Z,90.88
2018-08-24T01:07:22.267Z,87.07
2018-08-24T01:10:46.886Z,88.48
2018-08-24T01:14:11.575Z,87.28
2018-08-24T01:17:41.591Z,86.05
2018-08-24T01:21:06.341Z,85.28
2018-08-24T01:24:31.480Z,81.40
2018-08-24T01:27:56.121Z,82.09
2018-08-24T01:31:20.925Z,80.43
2018-08-24T01:34:45.581Z,83.56
2018-08-24T01:38:10.509Z,81.43
2018-08-24T01:41:35.123Z,82.67
2018-08-24T01:44:59.827Z,80.74
2018-08-24T01:48:24.839Z,85.10
2018-08-24T01:51:49.495Z,85.58
2018-08-24T01:55:14.159Z,85.74
2018-08-24T01:58:38.890Z,77.10
2018-08-24T02:02:03.617Z,80.16
2018-08-24T02:05:28.282Z,82.22
2018-08-24T02:08:52.924Z,81.30
2018-08-24T02:12:22.929Z,86.76
2018-08-24T02:15:48.288Z,81.11
2018-08-24T02:19:15.118Z,84.25
2018-08-24T02:22:39.739Z,88.09
2018-08-24T02:26:04.356Z,88.01
2018-08-24T02:29:29.043Z,85.43
2018-08-24T02:32:53.637Z,86.48
2018-08-24T02:36:18.265Z,89.14
2018-08-24T02:39:42.912Z,91.05
2018-08-24T02:43:07.582Z,93.87
2018-08-24T02:46:32.207Z,90.94
2018-08-24T02:49:56.905Z,86.03
2018-08-24T02:53:21.559Z,88.29
2018-08-24T02:56:46.223Z,90.71
2018-08-24T03:00:11.047Z,90.60
2018-08-24T03:03:35.701Z,89.53
2018-08-24T03:07:00.391Z,88.23
2018-08-24T03:10:25.003Z,88.04
2018-08-24T03:13:49.732Z,89.13
2018-08-24T03:17:19.695Z,90.42
2018-08-24T03:20:44.357Z,90.59
2018-08-24T03:24:09.044Z,91.72
2018-08-24T03:27:33.680Z,87.14
2018-08-24T03:30:58.335Z,89.68
2018-08-24T03:34:22.951Z,93.70
2018-08-24T03:37:47.601Z,94.88
2018-08-24T03:41:12.268Z,93.03
2018-08-24T03:44:36.927Z,92.49
2018-08-24T03:48:01.578Z,90.82
2018-08-24T03:51:26.200Z,81.38
2018-08-24T03:54:50.818Z,76.18
2018-08-24T03:58:15.455Z,76.89
2018-08-24T04:01:40.089Z,78.30
2018-08-24T04:05:04.800Z,76.91
2018-08-24T04:08:29.429Z,81.87
2018-08-24T04:11:54.061Z,82.89
2018-08-24T04:15:18.730Z,81.31
2018-08-24T04:18:43.446Z,79.24
2018-08-24T04:22:08.129Z,81.37
2018-08-24T04:25:32.837Z,87.65
2018-08-24T04:28:57.494Z,87.92
2018-08-24T04:32:22.174Z,83.92
2018-08-24T04:35:46.897Z,86.85
2018-08-24T04:39:12.704Z,88.23
2018-08-24T04:42:37.363Z,85.92
2018-08-24T04:46:02.005Z,84.57
2018-08-24T04:49:27.582Z,86.08
2018-08-24T04:52:52.200Z,85.95
2018-08-24T04:56:16.804Z,85.45
2018-08-24T04:59:41.502Z,80.26
2018-08-24T05:03:06.438Z,81.04
2018-08-24T05:06:31.104Z,76.62
2018-08-24T05:09:55.724Z,74.78
2018-08-24T05:13:20.350Z,77.76
2018-08-24T05:16:44.990Z,80.73
2018-08-24T05:20:09.722Z,77.81
2018-08-24T05:23:34.506Z,75.24
2018-08-24T05:26:59.278Z,75.60
2018-08-24T05:30:23.943Z,78.90
2018-08-24T05:33:48.600Z,78.87
2018-08-24T05:37:13.270Z,82.64
2018-08-24T05:40:38.104Z,77.49
2018-08-24T05:44:02.786Z,78.32
2018-08-24T05:47:27.488Z,80.82
2018-08-24T05:50:52.153Z,82.90
2018-08-24T05:54:16.837Z,81.41
2018-08-24T05:57:41.485Z,80.77
2018-08-24T06:01:06.227Z,78.91
2018-08-24T06:04:30.884Z,78.08
2018-08-24T06:07:55.606Z,75.50
2018-08-24T06:11:20.361Z,71.41
2018-08-24T06:14:45.138Z,69.77
2018-08-24T06:18:09.824Z,70.97
2018-08-24T06:21:34.470Z,69.42
2018-08-24T06:24:59.159Z,80.27
2018-08-24T06:28:23.983Z,77.52
2018-08-24T06:31:48.758Z,73.97
2018-08-24T06:35:14.153Z,74.31
2018-08-24T06:38:38.812Z,69.90
2018-08-24T06:42:03.706Z,69.61
2018-08-24T06:45:28.407Z,69.29
2018-08-24T06:48:53.165Z,71.47
2018-08-24T06:52:17.805Z,72.29
2018-08-24T06:55:42.477Z,73.21
2018-08-24T06:59:07.125Z,71.89
2018-08-24T07:02:31.845Z,71.36
2018-08-24T07:05:56.660Z,73.99
2018-08-24T07:09:21.332Z,71.29
2018-08-24T07:12:46.170Z,73.05
2018-08-24T07:16:11.001Z,73.64
2018-08-24T07:19:35.742Z,72.05
2018-08-24T07:23:00.417Z,71.73
2018-08-24T07:26:25.098Z,71.32
2018-08-24T07:29:49.858Z,70.30
2018-08-24T07:33:14.622Z,71.20
2018-08-24T07:36:39.354Z,71.01
2018-08-24T07:40:04.278Z,70.32
2018-08-24T07:43:28.917Z,68.83
2018-08-24T07:46:53.623Z,70.94
2018-08-24T07:50:18.328Z,70.46
2018-08-24T07:53:43.095Z,73.86
2018-08-24T07:57:07.886Z,70.31
2018-08-24T08:00:32.583Z,70.95
2018-08-24T08:03:58.231Z,71.65
2018-08-24T08:07:22.873Z,70.57
2018-08-24T08:10:47.587Z,70.64
2018-08-24T08:14:12.344Z,69.27
2018-08-24T08:17:38.091Z,71.09
2018-08-24T08:21:02.875Z,70.15
2018-08-24T08:24:28.582Z,73.43
2018-08-24T08:27:53.287Z,70.04
2018-08-24T08:31:17.980Z,69.75
2018-08-24T08:34:48.078Z,70.88
2018-08-24T08:38:12.872Z,70.84
2018-08-24T08:41:37.645Z,69.86
2018-08-24T08:45:02.476Z,71.21
2018-08-24T08:48:27.199Z,70.54
2018-08-24T08:51:51.805Z,70.22
2018-08-24T08:55:16.483Z,70.75
2018-08-24T08:58:41.098Z,67.76
2018-08-24T09:02:06.141Z,67.46
2018-08-24T09:05:30.851Z,67.51
2018-08-24T09:08:55.572Z,66.88
2018-08-24T09:12:20.245Z,67.15
2018-08-24T09:19:24.606Z,63.18
2018-08-24T09:22:54.977Z,64.78
2018-08-24T09:26:25.036Z,65.17
2018-08-24T09:29:49.740Z,62.63
2018-08-24T09:33:14.454Z,65.58
2018-08-24T09:36:39.178Z,64.03
2018-08-24T09:40:04.191Z,66.29
2018-08-24T09:43:34.138Z,65.98
2018-08-24T09:47:04.121Z,65.24
2018-08-24T09:50:34.030Z,62.71
2018-08-24T09:54:06.865Z,64.62
2018-08-24T09:57:31.620Z,63.57
2018-08-24T10:01:01.762Z,64.50
2018-08-24T10:04:31.731Z,63.43
2018-08-24T10:08:01.719Z,64.24
2018-08-24T10:11:26.395Z,63.35
2018-08-24T10:14:51.138Z,61.71
2018-08-24T10:18:15.884Z,62.50
2018-08-24T10:21:40.632Z,62.05
2018-08-24T10:25:05.345Z,63.24
2018-08-24T10:28:30.050Z,61.85
2018-08-24T10:31:54.794Z,60.09
2018-08-24T10:35:19.542Z,61.64
2018-08-24T10:38:44.283Z,60.20
2018-08-24T10:42:09.000Z,59.95
2018-08-24T10:45:34.079Z,60.06
2018-08-24T10:48:59.466Z,61.63
2018-08-24T10:52:24.380Z,55.97
2018-08-24T10:55:49.270Z,58.06
2018-08-24T10:59:13.861Z,57.28
2018-08-24T11:02:38.566Z,58.35
2018-08-24T11:06:03.558Z,57.39
2018-08-24T11:09:28.836Z,57.04
2018-08-24T11:12:53.746Z,60.35
2018-08-24T11:16:19.472Z,60.38
2018-08-24T11:19:45.447Z,59.97
2018-08-24T11:23:12.093Z,61.43
2018-08-24T11:26:37.306Z,60.91
2018-08-24T11:30:03.049Z,61.23
2018-08-24T11:33:28.283Z,61.69
2018-08-24T11:36:53.562Z,59.03
2018-08-24T11:40:18.637Z,59.61
2018-08-24T11:43:44.672Z,57.56
2018-08-24T11:47:09.692Z,57.38
2018-08-24T11:50:36.000Z,58.10
2018-08-24T11:54:01.401Z,59.63
2018-08-24T11:57:26.040Z,61.00
2018-08-24T12:00:50.761Z,62.25
2018-08-24T12:04:15.583Z,61.75
2018-08-24T12:07:40.322Z,61.00
2018-08-24T12:11:04.976Z,61.75
2018-08-24T12:14:29.874Z,60.96
2018-08-24T12:17:55.049Z,61.71
2018-08-24T12:21:19.890Z,61.37
2018-08-24T12:24:45.437Z,60.45
2018-08-24T12:28:10.073Z,60.27
2018-08-24T12:31:34.873Z,59.60
2018-08-24T12:34:59.578Z,59.72
2018-08-24T12:38:24.226Z,58.98
2018-08-24T12:41:48.843Z,57.88
2018-08-24T12:45:13.622Z,56.49
2018-08-24T12:48:38.387Z,56.29
2018-08-24T12:52:03.532Z,55.74
2018-08-24T12:55:28.165Z,54.90
2018-08-24T12:58:53.268Z,54.88
2018-08-24T13:02:18.155Z,54.88
2018-08-24T13:05:42.956Z,54.78
2018-08-24T13:09:10.331Z,55.92
2018-08-24T13:12:34.992Z,55.37
2018-08-24T13:15:59.723Z,55.13
2018-08-24T13:19:24.320Z,56.16
2018-08-24T13:22:48.952Z,56.89
2018-08-24T13:26:13.622Z,55.77
2018-08-24T13:29:38.344Z,54.42
2018-08-24T13:33:03.010Z,53.21
2018-08-24T13:36:27.704Z,52.36
2018-08-24T13:39:52.330Z,51.84
2018-08-24T13:43:17.011Z,54.29
2018-08-24T13:46:41.632Z,53.83
2018-08-24T13:50:06.473Z,54.13
2018-08-24T13:53:31.167Z,53.55
2018-08-24T13:56:55.802Z,52.86
2018-08-24T14:00:20.511Z,52.64
2018-08-24T14:03:45.294Z,53.39
2018-08-24T14:07:09.934Z,51.88
2018-08-24T14:10:34.647Z,52.42
2018-08-24T14:13:59.317Z,52.88
2018-08-24T14:17:26.043Z,54.85
2018-08-24T14:20:50.755Z,57.09
2018-08-24T14:24:15.466Z,56.77
2018-08-24T14:27:40.129Z,55.96
2018-08-24T14:31:04.778Z,55.66
2018-08-24T14:34:29.464Z,56.35
2018-08-24T14:37:54.238Z,56.82
2018-08-24T14:41:18.934Z,57.44
2018-08-24T14:44:43.589Z,59.86
2018-08-24T14:48:08.290Z,61.57
2018-08-24T14:51:32.964Z,61.53
2018-08-24T14:54:57.649Z,59.37
2018-08-24T14:58:22.349Z,59.02
2018-08-24T15:01:47.054Z,58.55
2018-08-24T15:05:12.542Z,58.28
2018-08-24T15:08:37.268Z,58.13
2018-08-24T15:12:01.917Z,59.11
2018-08-24T15:15:26.589Z,59.18
2018-08-24T15:18:51.282Z,59.23
2018-08-24T15:22:16.406Z,57.82
2018-08-24T15:25:41.094Z,55.45
2018-08-24T15:29:05.875Z,55.96
2018-08-24T15:32:30.607Z,55.01
2018-08-24T15:35:55.277Z,57.17
2018-08-24T15:39:19.976Z,56.09
2018-08-24T15:42:44.722Z,57.63
2018-08-24T15:46:09.445Z,60.07
2018-08-24T15:49:34.122Z,61.67
2018-08-24T15:52:58.785Z,61.11
2018-08-24T15:56:23.458Z,60.37
2018-08-24T15:59:48.085Z,60.81
2018-08-24T16:03:12.787Z,60.02
2018-08-24T16:06:37.475Z,61.81
2018-08-24T16:10:02.234Z,60.15
2018-08-24T16:13:27.534Z,60.07
2018-08-24T16:16:52.177Z,60.33
2018-08-24T16:20:16.930Z,60.63
2018-08-24T16:23:41.651Z,61.50
2018-08-24T16:27:07.996Z,61.48
2018-08-24T16:30:32.696Z,61.35
2018-08-24T16:33:57.378Z,61.49
2018-08-24T16:37:22.086Z,62.76
2018-08-24T16:40:46.742Z,62.57
2018-08-24T16:44:11.435Z,63.18
2018-08-24T16:47:36.650Z,60.24
2018-08-24T16:51:01.642Z,60.96
2018-08-24T16:54:26.644Z,61.79
2018-08-24T16:57:52.416Z,62.16
2018-08-24T17:01:17.098Z,62.15
2018-08-24T17:04:41.802Z,60.83
2018-08-24T17:08:06.904Z,60.68
2018-08-24T17:11:31.716Z,59.38
2018-08-24T17:14:56.376Z,60.38
2018-08-24T17:18:21.075Z,59.41
2018-08-24T17:21:45.737Z,58.65
2018-08-24T17:25:10.384Z,58.70
2018-08-24T17:28:35.185Z,57.61
2018-08-24T17:31:59.775Z,56.88
2018-08-24T17:35:24.382Z,57.43
2018-08-24T17:38:49.090Z,56.99
2018-08-24T17:42:13.832Z,56.26
2018-08-24T17:45:38.526Z,57.96
2018-08-24T17:49:03.758Z,58.50
2018-08-24T17:52:28.468Z,59.34
2018-08-24T17:55:53.230Z,58.37
2018-08-24T17:59:17.918Z,59.58
2018-08-24T18:02:42.750Z,59.66
2018-08-24T18:06:07.451Z,60.03
2018-08-24T18:09:32.313Z,59.88
2018-08-24T18:12:57.126Z,60.44
2018-08-24T18:16:21.824Z,60.41
2018-08-24T18:19:46.628Z,60.35
2018-08-24T18:23:11.342Z,60.32
2018-08-24T18:26:36.169Z,59.18
2018-08-24T18:30:00.829Z,59.59
2018-08-24T18:33:25.501Z,61.34
2018-08-24T18:36:50.197Z,61.97
2018-08-24T18:40:14.900Z,59.77
2018-08-24T18:43:39.615Z,62.20
2018-08-24T18:47:04.423Z,61.21
2018-08-24T18:50:29.152Z,60.90
2018-08-24T18:53:53.803Z,63.42
2018-08-24T18:57:18.470Z,63.61
2018-08-24T19:00:43.114Z,63.82
2018-08-24T19:04:07.802Z,64.46
2018-08-24T19:07:32.799Z,65.13
2018-08-24T19:11:02.793Z,64.71
2018-08-24T19:14:27.539Z,65.56
2018-08-24T19:17:57.456Z,64.83
2018-08-24T19:21:27.285Z,65.70
2018-08-24T19:24:52.004Z,64.97
2018-08-24T19:28:22.078Z,65.24
2018-08-24T19:31:46.899Z,63.61
2018-08-24T19:35:11.754Z,63.16
2018-08-24T19:38:36.442Z,63.67
2018-08-24T19:42:06.464Z,64.15
2018-08-24T19:45:31.696Z,64.50
2018-08-24T19:49:01.562Z,64.38
2018-08-24T19:52:26.308Z,63.59
2018-08-24T19:55:51.067Z,65.23
2018-08-24T19:59:16.847Z,63.46
2018-08-24T20:02:41.531Z,64.47
2018-08-24T20:06:11.592Z,64.12
2018-08-24T20:09:41.680Z,65.33
2018-08-24T20:13:07.465Z,65.38
2018-08-24T20:16:37.552Z,66.27
2018-08-24T20:20:02.287Z,66.35
2018-08-24T20:23:26.971Z,65.66
2018-08-24T20:26:51.611Z,65.92
2018-08-24T20:30:16.348Z,67.72
2018-08-24T20:33:41.031Z,65.65
2018-08-24T20:37:05.840Z,66.04
2018-08-24T20:40:30.471Z,65.48
2018-08-24T20:43:55.134Z,66.36
2018-08-24T20:47:19.872Z,64.33
2018-08-24T20:50:44.518Z,65.17
2018-08-24T20:54:09.116Z,65.67
2018-08-24T20:57:33.759Z,66.93
2018-08-24T21:00:58.525Z,66.59
2018-08-24T21:04:23.405Z,66.10
2018-08-24T21:07:48.326Z,66.92
2018-08-24T21:11:12.992Z,66.36
2018-08-24T21:14:37.725Z,66.96
2018-08-24T21:18:02.355Z,66.56
2018-08-24T21:21:26.993Z,66.86
2018-08-24T21:24:51.644Z,66.72
2018-08-24T21:28:16.277Z,65.93
2018-08-24T21:31:41.258Z,66.45
2018-08-24T21:35:06.712Z,65.47
2018-08-24T21:38:31.347Z,66.04
2018-08-24T21:41:56.051Z,66.05
2018-08-24T21:45:20.904Z,67.09
2018-08-24T21:48:45.557Z,67.17
2018-08-24T21:52:10.327Z,66.80
2018-08-24T21:55:35.117Z,66.48
2018-08-24T21:58:59.840Z,67.23
2018-08-24T22:02:25.152Z,65.34
2018-08-24T22:05:50.172Z,66.68
2018-08-24T22:09:14.891Z,66.43
2018-08-24T22:12:39.828Z,66.46
2018-08-24T22:16:04.520Z,66.21
2018-08-24T22:19:29.198Z,63.79
2018-08-24T22:22:53.981Z,65.05
2018-08-24T22:26:18.616Z,65.76
2018-08-24T22:29:43.263Z,66.83
2018-08-24T22:33:07.904Z,66.11
2018-08-24T22:36:32.566Z,66.40
2018-08-24T22:39:57.241Z,65.62
2018-08-24T22:43:27.593Z,65.17
2018-08-24T22:46:52.192Z,66.34
2018-08-24T22:50:16.865Z,66.01
2018-08-24T22:53:41.536Z,66.11
2018-08-24T22:57:06.315Z,65.98
2018-08-24T23:00:31.062Z,66.39
2018-08-24T23:03:55.700Z,64.88
2018-08-24T23:07:20.342Z,64.19
2018-08-24T23:10:44.982Z,64.45
2018-08-24T23:14:09.820Z,64.03
2018-08-24T23:17:34.470Z,65.62
2018-08-24T23:20:59.131Z,64.91
2018-08-24T23:24:23.793Z,66.03
2018-08-24T23:27:48.492Z,65.39
2018-08-24T23:31:13.128Z,64.10
2018-08-24T23:34:37.738Z,63.70
2018-08-24T23:38:02.454Z,65.17
2018-08-24T23:41:28.081Z,63.87
2018-08-24T23:44:52.742Z,62.68
2018-08-24T23:48:17.414Z,63.71
2018-08-24T23:51:42.076Z,63.28
2018-08-24T23:55:09.593Z,63.16
2018-08-24T23:58:34.270Z,59.87
